Main page
METAR-TAF:

METAR-TAF

Airports :

Mexicali International Airport

Mexicali, Mexico

latitude: 32-37-50N, longitude: 115-14-30W, elevation: 22 m

Current weather observation

The report was made 1 hour and 42 minutes ago, at 02:40 UTC
Calm wind
Temperature 22°C
Humidity 35%
Pressure 1017 hPa
Visibility: 16.1 km
Clear sky

METAR: MMML 010240Z 00000KT 10SM SKC 22/06 A3002 RMK SLP166 52010 923

Time: 22:22 (04:22 UTC)

Forecast

The report was made 11 hours and 6 minutes ago, at 17:16 UTC
Forecast valid from 29 at 18 UTC to 01 at 18 UTC
Wind 10 kt from the South/Southeast
Visibility: 10 km
Clear sky
From 29 at 2100 UTC
Wind 10 kt from the Southwest
Visibility: 10 km
Clear sky
From 01 at 0300 UTC
Wind 8 kt from the South
Visibility: 10 km
Clear sky
From 01 at 0900 UTC
Wind 6 kt from the Northwest
Visibility: 10 km
Clear sky

TAF: MMML 291716Z 2918/0118 15010KT P6SM SKC FM292100 22010KT P6SM SKC FM010300 18008KT P6SM SKC FM010900 32006KT P6SM SKC

Weather observations and forecasts of more than 4000 airports (METAR and TAF reports).

The available stations are represented by yellow and red dots on the map.

Hover mouse over dot to see the name of the station.

Then click to see weather observations and forecasts.

To change the map : click on the green buttons with a black cross to zoom in, on the green button with a dash to zoom out, or on the green arrows for adjacent maps.


METAR-TAF: